• Join FlightAware (Why Join?)
  • Login
  • US Flag 
12:12AM EDT


 

Airport Tracker/Info


-or-


 

Live Flight TrackerFlight Track Log ✈ UAL3838 ✈ 02-May-2013 ✈ KRDU - KCLE

Flight Track Log - Related Links

Times and Time Zones

All times are in EDT time to prevent confusion due to time zone crossing. See the UAL3838 flight status page for this flight to view local times or setup timezone preferences in your user account.

Time Position Orientation Groundspeed Altitude Reporting Facility
EDT Latitude Longitude Course Direction KTS MPH feet Rate Location/Type
02:55PM 35.8989 -78.7742 25° Northeast 160 184 1,400  Level Washington Center
02:56PM 35.9456 -78.7478 25° Northeast 193 222 3,400 1,920 Climbing Washington Center
02:57PM 35.9878 -78.8058 312° West 252 290 5,500 1,860 Climbing Washington Center
02:57PM 35.9931 -78.8369 282° West 285 328 6,100 2,160 Climbing Washington Center
02:58PM 36.0031 -78.9297 278° West 291 335 8,500 2,100 Climbing Washington Center
02:59PM 36.0108 -79.0250 276° West 291 335 10,400 1,440 Climbing Washington Center
03:00PM 36.0222 -79.1336 277° West 303 349 11,400 900 Climbing Washington Center
03:01PM 36.0358 -79.2419 279° West 337 388 12,200 1,200 Climbing Washington Center
03:02PM 36.0908 -79.3525 302° West 347 399 13,800 1,320 Climbing Washington Center
03:03PM 36.1794 -79.3875 342° North 328 377 14,900 1,140 Climbing Washington Center
03:04PM 36.2769 -79.4669 327° Northwest 369 425 16,100 1,140 Climbing Washington Center
03:05PM 36.3561 -79.5381 324° Northwest 393 452 17,200 960 Climbing Washington Center
03:06PM 36.4533 -79.6231 325° Northwest 393 452 18,100 1,020 Climbing Washington Center
03:07PM 36.5444 -79.7053 324° Northwest 393 452 19,200 1,140 Climbing Washington Center
03:08PM 36.6181 -79.8050 313° West 393 452 20,400 1,080 Climbing Washington Center
03:09PM 36.6728 -79.9142 302° West 416 479 21,400 960 Climbing Washington Center
03:10PM 36.7369 -80.0369 303° West 416 479 22,400 1,080 Climbing Washington Center
03:11PM 36.7708 -80.1025 303° West 402 463 23,000 1,200 Climbing Atlanta Center
03:12PM 36.8331 -80.2239 303° West 397 457 24,200 1,200 Climbing Atlanta Center
03:13PM 36.8953 -80.3481 302° West 408 470 25,400 1,020 Climbing Atlanta Center
03:14PM 36.9594 -80.4697 303° West 413 475 26,300 960 Climbing Atlanta Center
03:15PM 37.0211 -80.5892 303° West 419 482 27,400 1,140 Climbing Atlanta Center
03:16PM 37.0783 -80.6958 304° West 419 482 28,600 960 Climbing Atlanta Center
03:17PM 37.2253 -80.8242 325° Northwest 398 458 30,000 480 Climbing Indianapolis Center
03:18PM 37.3214 -80.9053 326° Northwest 417 480 30,000 660 Level Indianapolis Center
03:19PM 37.4400 -81.0017 327° Northwest 430 495 31,400 960 Climbing Indianapolis Center
03:20PM 37.5383 -81.0842 326° Northwest 434 499 32,000 240 Climbing Indianapolis Center
03:21PM 37.6394 -81.1672 327° Northwest 443 510 32,000  Level Indianapolis Center
03:22PM 37.7628 -81.2719 326° Northwest 453 521 32,000  Level Indianapolis Center
03:23PM 37.8686 -81.3594 327° Northwest 454 522 32,000  Level Indianapolis Center
03:24PM 37.9900 -81.4019 345° North 450 518 32,000  Level Indianapolis Center
03:25PM 38.1139 -81.4378 347° North 454 522 32,000  Level Indianapolis Center
03:26PM 38.2403 -81.4736 347° North 463 533 32,000  Level Indianapolis Center
03:27PM 38.3658 -81.5089 348° North 462 532 32,000  Level Indianapolis Center
03:28PM 38.4911 -81.5458 347° North 462 532 32,000  Level Indianapolis Center
03:30PM 38.6436 -81.5900 347° North 462 532 32,000  Level Indianapolis Center
03:31PM 38.7692 -81.6267 347° North 463 533 32,000  Level Indianapolis Center
03:32PM 38.8797 -81.6569 348° North 464 534 32,000 -300 Level Indianapolis Center
03:33PM 39.0292 -81.7011 347° North 457 526 31,400 -900 Descending Indianapolis Center
03:34PM 39.1536 -81.7378 347° North 456 525 30,200 -1,200 Descending Indianapolis Center
03:35PM 39.2828 -81.7747 348° North 472 543 29,000 -1,200 Descending Indianapolis Center
03:36PM 39.4117 -81.8133 347° North 474 545 27,800 -1,200 Descending Indianapolis Center
03:37PM 39.5431 -81.8522 347° North 482 555 26,600 -1,140 Descending Indianapolis Center
03:38PM 39.6731 -81.8906 347° North 480 552 25,500 -1,260 Descending Indianapolis Center
03:39PM 39.8247 -81.9356 347° North 471 542 24,000 -1,140 Descending Indianapolis Center
03:40PM 39.9486 -81.9733 347° North 459 528 23,200 -840 Descending Indianapolis Center
03:41PM 40.0711 -82.0100 347° North 452 520 22,300 -1,020 Descending Indianapolis Center
03:42PM 40.1911 -82.0458 347° North 442 509 21,200 -1,020 Descending Indianapolis Center
03:43PM 40.3214 -82.0856 347° North 441 507 20,200 -960 Descending Indianapolis Center
03:44PM 40.4258 -82.1106 350° North 436 502 19,300 -1,020 Descending Cleveland Center
03:45PM 40.5331 -82.0528 22° Northeast 415 478 18,300 -1,140 Descending Cleveland Center
03:46PM 40.6258 -81.9592 37° Northeast 415 478 17,100 -1,740 Descending Cleveland Center
03:47PM 40.7017 -81.8867 36° Northeast 420 483 15,200 -2,520 Descending Cleveland Center
03:47PM 40.7756 -81.8114 38° Northeast 401 461 13,200 -2,220 Descending Cleveland Center
03:48PM 40.8050 -81.7819 37° Northeast 400 460 12,500 -1,740 Descending Cleveland Center
03:49PM 40.8822 -81.7833 359° North 379 436 11,300 -1,500 Descending Cleveland Center
03:49PM 40.9092 -81.7864 355° North 357 411 11,000 -1,020 Descending Cleveland Center
03:50PM 40.9839 -81.8153 344° North 393 452 10,300 -1,020 Descending Cleveland Center
03:50PM 41.0150 -81.8381 331° Northwest 370 426 10,000 -300 Descending Cleveland Center
03:51PM 41.0747 -81.9025 321° Northwest 368 423 10,000  Level Cleveland Center
03:51PM 41.0953 -81.9194 328° Northwest 363 418 10,000 -1,260 Level Cleveland Center
03:51PM 41.1283 -81.9531 323° Northwest 295 339 9,000 -2,220 Descending Cleveland Center
03:52PM 41.1633 -81.9842 326° Northwest 330 380 7,800 -2,100 Descending Cleveland Center
03:52PM 41.1942 -82.0181 320° Northwest 293 337 6,900 -2,100 Descending Cleveland Center
03:53PM 41.2294 -82.0353 340° North 293 337 5,700 -2,400 Descending Cleveland Center
03:54PM 41.2733 -82.0336 North 250 288 4,300 -1,800 Descending Cleveland Center
03:54PM 41.2942 -82.0203 26° Northeast 230 265 3,900 -1,140 Descending Cleveland Center
03:55PM 41.3217 -81.9878 42° Northeast 205 236 3,200 -1,140 Descending Cleveland Center
03:55PM 41.3344 -81.9658 52° Northeast 201 231 2,800 -1,200 Descending Cleveland Center